ARKANSAS RIVER NAVIGATION REPORT
  LITTLE ROCK DISTRICT - U.S. ARMY CORPS OF ENGINEERS
  GENERATED: 28 APR 2017 @ 18:35
 
  NOTE: These data are not guaranteed to be valid or correct.
        RELEASES AND FLOWS ARE IN THOUSANDS OF CFS
  _____________________________________________________________________________
 
                  27APR     27APR      27APR           28APR          28APR
                  @1200     @2400     AVERAGE      LATEST OBSERVED    PRECIP.
                  HOURS     HOURS      FLOW         DATA AND TIME     (7A-7A)
  _____________________________________________________________________________
 
  LD13 HW-ELEV    388.42    389.23                389.28  @  17:00      0.00
  LD13 TW-ELEV    387.30    385.21                386.62  @  17:00
  LD13 RELEASE    142.6     118.0     141.1       134.4   @  17:00
 
  OZA.L&D HW-ELEV 371.78    371.57                371.47  @  17:00      0.00
  OZA.L&D TW-ELEV 356.26    354.78                353.15  @  17:00
  OZA.L&D RELEASE 171.9     142.5     164.7        99.6   @  17:00
 
  DRD.L&D HW-ELEV 337.76    337.88                337.62  @  17:00      0.00
  DRD.L&D TW-ELEV 304.10    304.51                303.61  @  17:00
  DRD.L&D RELEASE 158.4     159.0     154.9       151.1   @  17:00
 
  LD09 HW-ELEV    285.43    284.88                284.67  @  17:00      0.00
  LD09 TW-ELEV    282.76    284.26                284.12  @  17:00
  LD09 RELEASE    144.4     158.0     149.1       156.6   @  17:00
 
  LD08 HW-ELEV    267.87    269.69                270.32  @  17:00      0.00
  LD08 TW-ELEV    267.11    268.84                269.42  @  17:00
  LD08 RELEASE    144.9     167.4     146.4       175.0   @  17:00
 
  LD07 HW-ELEV    247.24    247.29                247.32  @  17:00      0.00
  LD07 TW-ELEV    237.89    239.83                240.86  @  17:00
  LD07 RELEASE    146.1     174.1     144.2       177.5   @  17:00
 
  LD06 HW-ELEV    230.16    230.45                230.63  @  17:00      0.00
  LD06 TW-ELEV    224.56    226.38                227.58  @  17:00
  LD06 RELEASE    131.8     154.8     134.0       150.2   @  17:00
 
  LD05 HW-ELEV    212.01    212.33                212.75  @  17:00      0.00
  LD05 TW-ELEV    204.77    206.52                208.75  @  17:00
  LD05 RELEASE    126.2     151.0     131.4       159.5   @  17:00
 
  LD04 HW-ELEV    194.45    194.80                194.85  @  17:00      0.00
  LD04 TW-ELEV    190.78    191.85                194.10  @  17:00
  LD04 RELEASE    122.2     135.8     125.0       161.0   @  17:00
 
  LD03 HW-ELEV    180.34    180.80                182.57  @  17:00      0.00
  LD03 TW-ELEV    179.18    179.58                182.05  @  17:00
  LD03 RELEASE    121.4     127.9     122.6       162.5   @  17:00
 
  L02 HW-ELEV     161.80    161.83                162.37  @  17:00      0.00
 
  D02 HW-ELEV     161.03    161.09                161.40  @  17:00      0.00
  D02 TW-ELEV     143.08    143.87                144.01  @  17:00
  D02 RELEASE     120.5     123.5     123.0       139.1   @  17:00
 
  L01 TW-ELEV     139.52    140.09                140.88  @  17:00      0.00
 
  MPLD HW-ELEV    139.06    139.66                140.49  @  17:00       .08	
  MPLD TW-ELEV    139.04    139.61                140.43  @  17:00
 
  WREC DIFF.         .46       .43                   .39
  CLARENDON FLOW   31.23     32.37     31.23       34.03  @  17:00
  HELENA STAGE     27.48     28.18                 28.99  @  17:00
  CAIRO STAGE      39.16     40.07                 40.99  @  17:00
  _____________________________________________________________________________